createdAt,value
2022-12-24T00:00:39.792Z,85.20
2022-12-24T00:02:00.420Z,84.30
2022-12-24T00:03:21.292Z,84.10
2022-12-24T00:04:41.915Z,84.40
2022-12-24T00:06:05.136Z,84.60
2022-12-24T00:07:26.013Z,85.20
2022-12-24T00:08:46.519Z,84.90
2022-12-24T00:10:08.464Z,85.00
2022-12-24T00:11:28.741Z,84.80
2022-12-24T00:12:49.374Z,84.90
2022-12-24T00:14:10.092Z,84.80
2022-12-24T00:15:30.735Z,85.10
2022-12-24T00:16:52.542Z,84.90
2022-12-24T00:18:13.373Z,84.70
2022-12-24T00:19:33.948Z,85.10
2022-12-24T00:20:54.989Z,85.20
2022-12-24T00:22:15.793Z,85.20
2022-12-24T00:23:36.362Z,84.90
2022-12-24T00:24:56.856Z,85.10
2022-12-24T00:26:17.390Z,85.30
2022-12-24T00:27:37.590Z,85.00
2022-12-24T00:28:58.242Z,85.10
2022-12-24T00:30:19.248Z,84.90
2022-12-24T00:31:39.723Z,84.90
2022-12-24T00:33:01.579Z,85.20
2022-12-24T00:34:23.326Z,85.20
2022-12-24T00:35:44.080Z,85.20
2022-12-24T00:37:05.531Z,85.30
2022-12-24T00:38:26.331Z,85.60
2022-12-24T00:39:46.799Z,85.30
2022-12-24T00:41:08.594Z,85.00
2022-12-24T00:42:29.310Z,85.30
2022-12-24T00:43:50.975Z,85.50
2022-12-24T00:45:11.939Z,85.70
2022-12-24T00:46:34.433Z,85.30
2022-12-24T00:47:54.799Z,85.50
2022-12-24T00:49:16.361Z,85.50
2022-12-24T00:50:37.054Z,85.70
2022-12-24T00:51:58.311Z,85.80
2022-12-24T00:53:19.621Z,85.80
2022-12-24T00:54:40.049Z,85.50
2022-12-24T00:56:00.648Z,85.20
2022-12-24T00:57:21.163Z,85.20
2022-12-24T00:58:41.823Z,85.70
2022-12-24T01:00:02.771Z,85.80
2022-12-24T01:01:23.844Z,85.70
2022-12-24T01:02:44.775Z,85.40
2022-12-24T01:04:05.745Z,85.20
2022-12-24T01:05:27.793Z,85.10
2022-12-24T01:06:48.275Z,85.40
2022-12-24T01:08:08.595Z,85.30
2022-12-24T01:09:29.129Z,85.70
2022-12-24T01:10:49.901Z,85.40
2022-12-24T01:12:10.235Z,85.80
2022-12-24T01:13:31.112Z,86.00
2022-12-24T01:14:51.729Z,85.80
2022-12-24T01:16:15.584Z,86.30
2022-12-24T01:17:36.117Z,85.90
2022-12-24T01:18:56.567Z,85.90
2022-12-24T01:20:17.870Z,85.80
2022-12-24T01:21:39.736Z,86.10
2022-12-24T01:23:00.165Z,86.10
2022-12-24T01:24:20.469Z,85.90
2022-12-24T01:25:41.203Z,86.20
2022-12-24T01:27:01.813Z,86.00
2022-12-24T01:28:22.541Z,85.70
2022-12-24T01:29:43.231Z,85.80
2022-12-24T01:31:10.748Z,86.00
2022-12-24T01:32:31.818Z,86.60
2022-12-24T01:33:52.631Z,86.00
2022-12-24T01:35:13.462Z,86.30
2022-12-24T01:36:34.136Z,86.60
2022-12-24T01:37:55.998Z,86.80
2022-12-24T01:39:16.407Z,86.70
2022-12-24T01:40:36.969Z,86.70
2022-12-24T01:41:57.594Z,86.70
2022-12-24T01:43:19.885Z,86.70
2022-12-24T01:44:41.706Z,86.60
2022-12-24T01:46:03.809Z,86.50
2022-12-24T01:47:27.098Z,86.50
2022-12-24T01:48:49.980Z,86.50
2022-12-24T01:50:15.888Z,86.60
2022-12-24T01:51:38.823Z,86.10
2022-12-24T01:53:00.818Z,86.70
2022-12-24T01:54:23.820Z,86.50
2022-12-24T01:55:45.221Z,86.50
2022-12-24T01:57:09.819Z,86.00
2022-12-24T01:58:30.418Z,86.40
2022-12-24T01:59:53.881Z,86.10
2022-12-24T02:01:14.676Z,85.90
2022-12-24T02:02:35.470Z,85.90
2022-12-24T02:03:56.057Z,86.10
2022-12-24T02:05:20.571Z,85.60
2022-12-24T02:06:41.004Z,85.50
2022-12-24T02:08:04.054Z,85.50
2022-12-24T02:09:25.147Z,85.40
2022-12-24T02:10:45.878Z,85.50
2022-12-24T02:12:07.515Z,85.80
2022-12-24T02:13:28.324Z,86.20
2022-12-24T02:14:49.061Z,85.80
2022-12-24T02:16:15.857Z,86.10
2022-12-24T02:17:42.213Z,86.40
2022-12-24T02:19:10.683Z,86.00
2022-12-24T02:20:55.241Z,86.30
2022-12-24T02:22:17.820Z,86.00
2022-12-24T02:24:02.832Z,86.20
2022-12-24T02:25:45.444Z,86.00
2022-12-24T02:27:16.175Z,86.30
2022-12-24T02:28:52.751Z,86.60
2022-12-24T02:30:17.062Z,86.60
2022-12-24T02:31:41.871Z,86.20
2022-12-24T02:33:22.801Z,86.70
2022-12-24T02:34:46.821Z,86.90
2022-12-24T02:36:13.387Z,86.90
2022-12-24T02:37:37.427Z,87.30
2022-12-24T02:39:01.420Z,87.60
2022-12-24T02:40:24.560Z,87.80
2022-12-24T02:41:48.800Z,87.60
2022-12-24T02:43:11.717Z,87.60
2022-12-24T02:44:37.048Z,87.60
2022-12-24T02:46:01.146Z,87.80
2022-12-24T02:47:24.212Z,88.00
2022-12-24T02:48:46.085Z,87.90
2022-12-24T02:50:08.936Z,88.00
2022-12-24T02:51:29.816Z,87.00
2022-12-24T02:52:50.429Z,87.20
2022-12-24T02:54:11.929Z,87.80
2022-12-24T02:55:36.645Z,87.80
2022-12-24T02:57:06.822Z,87.90
2022-12-24T02:58:45.796Z,88.10
2022-12-24T03:00:08.093Z,88.50
2022-12-24T03:01:36.074Z,88.40
2022-12-24T03:03:08.878Z,88.70
2022-12-24T03:04:32.815Z,88.40
2022-12-24T03:05:57.715Z,88.20
2022-12-24T03:07:21.157Z,88.50
2022-12-24T03:08:45.196Z,88.00
2022-12-24T03:10:18.156Z,88.10
2022-12-24T03:11:41.238Z,88.20
2022-12-24T03:13:06.429Z,88.10
2022-12-24T03:14:27.981Z,88.40
2022-12-24T03:15:49.537Z,88.50
2022-12-24T03:17:11.144Z,88.50
2022-12-24T03:18:31.705Z,88.60
2022-12-24T03:19:55.076Z,88.50
2022-12-24T03:21:18.731Z,88.20
2022-12-24T03:22:39.159Z,88.10
2022-12-24T03:23:59.883Z,88.20
2022-12-24T03:25:24.664Z,88.40
2022-12-24T03:26:45.979Z,87.90
2022-12-24T03:28:09.645Z,88.00
2022-12-24T03:29:30.155Z,88.00
2022-12-24T03:30:50.790Z,88.50
2022-12-24T03:32:12.966Z,88.00
2022-12-24T03:33:33.419Z,88.50
2022-12-24T03:34:54.102Z,88.20
2022-12-24T03:36:14.598Z,88.50
2022-12-24T03:37:35.210Z,88.30
2022-12-24T03:38:55.667Z,88.30
2022-12-24T03:40:16.172Z,88.30
2022-12-24T03:41:36.486Z,88.20
2022-12-24T03:42:57.197Z,88.00
2022-12-24T03:44:17.588Z,88.40
2022-12-24T03:45:37.922Z,88.50
2022-12-24T03:46:58.536Z,88.70
2022-12-24T03:48:20.500Z,88.20
2022-12-24T03:49:40.607Z,88.20
2022-12-24T03:51:01.009Z,88.10
2022-12-24T03:52:21.844Z,88.20
2022-12-24T03:53:42.494Z,88.00
2022-12-24T03:55:03.573Z,88.20
2022-12-24T03:56:24.227Z,88.10
2022-12-24T03:57:44.516Z,87.80
2022-12-24T03:59:05.306Z,88.10
2022-12-24T04:00:26.056Z,88.30
2022-12-24T04:01:46.898Z,87.90
2022-12-24T04:03:07.490Z,88.10
2022-12-24T04:04:29.519Z,87.60
2022-12-24T04:06:01.107Z,88.10
2022-12-24T04:07:21.386Z,88.10
2022-12-24T04:08:42.363Z,88.20
2022-12-24T04:10:03.732Z,87.90
2022-12-24T04:11:24.642Z,88.30
2022-12-24T04:12:45.001Z,87.60
2022-12-24T04:14:05.555Z,87.90
2022-12-24T04:15:26.182Z,88.20
2022-12-24T04:16:47.001Z,87.90
2022-12-24T04:18:08.004Z,87.60
2022-12-24T04:19:30.033Z,87.80
2022-12-24T04:20:50.605Z,87.40
2022-12-24T04:22:11.281Z,87.30
2022-12-24T04:23:32.565Z,87.60
2022-12-24T04:24:53.340Z,87.80
2022-12-24T04:26:14.809Z,87.90
2022-12-24T04:27:35.265Z,87.60
2022-12-24T04:28:55.631Z,88.00
2022-12-24T04:30:15.923Z,88.00
2022-12-24T04:31:36.446Z,87.60
2022-12-24T04:32:57.184Z,87.80
2022-12-24T04:34:17.962Z,88.10
2022-12-24T04:35:40.933Z,87.90
2022-12-24T04:37:01.193Z,87.40
2022-12-24T04:38:21.917Z,87.40
2022-12-24T04:39:42.679Z,87.90
2022-12-24T04:41:04.753Z,87.90
2022-12-24T04:42:25.275Z,88.40
2022-12-24T04:43:46.077Z,88.00
2022-12-24T04:45:07.934Z,88.20
2022-12-24T04:46:29.447Z,87.40
2022-12-24T04:47:50.073Z,87.60
2022-12-24T04:49:11.413Z,87.90
2022-12-24T04:50:32.120Z,87.50
2022-12-24T04:51:54.177Z,87.90
2022-12-24T04:53:14.786Z,87.90
2022-12-24T04:54:35.647Z,88.10
2022-12-24T04:55:55.898Z,88.30
2022-12-24T04:57:16.522Z,88.10
2022-12-24T04:58:36.804Z,88.50
2022-12-24T04:59:57.151Z,88.00
2022-12-24T05:01:19.501Z,87.80
2022-12-24T05:02:40.110Z,87.30
2022-12-24T05:04:01.175Z,87.70
2022-12-24T05:05:22.135Z,87.60
2022-12-24T05:06:42.472Z,88.20
2022-12-24T05:08:04.861Z,88.30
2022-12-24T05:09:25.479Z,88.10
2022-12-24T05:10:55.316Z,88.20
2022-12-24T05:12:15.876Z,88.10
2022-12-24T05:13:42.529Z,88.20
2022-12-24T05:15:07.419Z,88.70
2022-12-24T05:16:28.014Z,88.60
2022-12-24T05:17:48.359Z,89.00
2022-12-24T05:19:09.278Z,88.50
2022-12-24T05:20:29.612Z,88.60
2022-12-24T05:21:50.294Z,88.40
2022-12-24T05:23:15.606Z,88.50
2022-12-24T05:24:36.713Z,88.40
2022-12-24T05:25:57.402Z,88.10
2022-12-24T05:27:17.624Z,88.10
2022-12-24T05:28:37.876Z,87.70
2022-12-24T05:29:58.234Z,87.60
2022-12-24T05:31:19.609Z,87.20
2022-12-24T05:32:40.138Z,87.30
2022-12-24T05:34:00.666Z,87.40
2022-12-24T05:35:21.282Z,87.50
2022-12-24T05:36:41.980Z,87.40
2022-12-24T05:38:02.727Z,87.60
2022-12-24T05:39:24.674Z,87.60
2022-12-24T05:40:46.447Z,88.00
2022-12-24T05:42:06.910Z,87.80
2022-12-24T05:43:27.260Z,87.90
2022-12-24T05:44:47.870Z,87.40
2022-12-24T05:46:10.963Z,87.50
2022-12-24T05:47:31.503Z,87.90
2022-12-24T05:48:52.441Z,88.10
2022-12-24T05:50:14.127Z,87.80
2022-12-24T05:51:34.555Z,87.40
2022-12-24T05:52:55.240Z,87.40
2022-12-24T05:54:15.770Z,87.00
2022-12-24T05:55:37.684Z,87.20
2022-12-24T05:56:58.280Z,87.60
2022-12-24T05:58:18.859Z,87.60
2022-12-24T05:59:39.418Z,87.30
2022-12-24T06:01:01.365Z,87.40
2022-12-24T06:02:22.079Z,87.30
2022-12-24T06:03:42.911Z,87.30
2022-12-24T06:05:03.992Z,87.70
2022-12-24T06:06:26.478Z,87.60
2022-12-24T06:07:47.595Z,87.90
2022-12-24T06:09:08.005Z,88.30
2022-12-24T06:10:28.631Z,88.10
2022-12-24T06:11:50.457Z,88.40
2022-12-24T06:13:11.225Z,88.60
2022-12-24T06:14:31.607Z,88.30
2022-12-24T06:15:54.613Z,88.40
2022-12-24T06:17:15.331Z,88.40
2022-12-24T06:18:36.226Z,88.20
2022-12-24T06:19:56.553Z,88.20
2022-12-24T06:21:17.757Z,88.30
2022-12-24T06:22:38.498Z,88.40
2022-12-24T06:23:58.692Z,88.50
2022-12-24T06:25:19.503Z,88.30
2022-12-24T06:26:39.877Z,88.40
2022-12-24T06:28:01.817Z,88.00
2022-12-24T06:29:22.160Z,88.40
2022-12-24T06:30:46.656Z,88.20
2022-12-24T06:32:06.827Z,88.30
2022-12-24T06:33:27.584Z,88.00
2022-12-24T06:34:49.411Z,88.30
2022-12-24T06:36:17.209Z,88.40
2022-12-24T06:37:38.513Z,88.20
2022-12-24T06:38:59.178Z,88.40
2022-12-24T06:40:19.850Z,88.70
2022-12-24T06:41:40.133Z,88.60
2022-12-24T06:43:02.012Z,88.50
2022-12-24T06:44:22.775Z,88.50
2022-12-24T06:45:45.778Z,88.60
2022-12-24T06:47:06.225Z,88.80
2022-12-24T06:48:26.678Z,89.00
2022-12-24T06:49:46.971Z,88.70
2022-12-24T06:51:07.410Z,89.00
2022-12-24T06:52:27.979Z,88.70
2022-12-24T06:53:49.049Z,88.60
2022-12-24T06:55:10.541Z,88.70
2022-12-24T06:56:30.957Z,88.80
2022-12-24T06:57:51.699Z,88.40
2022-12-24T06:59:13.608Z,88.50
2022-12-24T07:00:34.179Z,88.90
2022-12-24T07:01:54.896Z,88.70
2022-12-24T07:03:15.691Z,88.60
2022-12-24T07:04:36.530Z,89.10
2022-12-24T07:05:57.330Z,89.10
2022-12-24T07:07:17.844Z,89.00
2022-12-24T07:08:38.427Z,89.20
2022-12-24T07:09:59.242Z,88.70
2022-12-24T07:11:19.973Z,88.70
2022-12-24T07:12:40.396Z,89.00
2022-12-24T07:14:00.978Z,88.90
2022-12-24T07:15:22.874Z,88.70
2022-12-24T07:16:43.515Z,89.00
2022-12-24T07:18:04.384Z,88.60
2022-12-24T07:19:24.920Z,88.60
2022-12-24T07:20:45.525Z,88.90
2022-12-24T07:22:10.219Z,89.30
2022-12-24T07:23:33.938Z,89.20
2022-12-24T07:24:54.686Z,88.80
2022-12-24T07:26:15.329Z,88.90
2022-12-24T07:27:35.617Z,88.50
2022-12-24T07:28:56.132Z,88.60
2022-12-24T07:30:17.189Z,88.90
2022-12-24T07:31:39.028Z,89.00
2022-12-24T07:32:59.473Z,89.00
2022-12-24T07:34:19.912Z,89.00
2022-12-24T07:35:40.510Z,88.50
2022-12-24T07:37:01.128Z,88.50
2022-12-24T07:38:21.772Z,88.50
2022-12-24T07:39:42.477Z,88.60
2022-12-24T07:41:03.201Z,88.80
2022-12-24T07:42:23.847Z,88.40
2022-12-24T07:43:44.271Z,88.20
2022-12-24T07:45:06.073Z,88.40
2022-12-24T07:46:26.735Z,88.60
2022-12-24T07:47:48.910Z,89.00
2022-12-24T07:49:09.493Z,89.50
2022-12-24T07:50:30.131Z,89.20
2022-12-24T07:51:50.566Z,89.10
2022-12-24T07:53:11.132Z,89.00
2022-12-24T07:54:31.719Z,89.00
2022-12-24T07:55:51.951Z,88.70
2022-12-24T07:57:12.319Z,89.00
2022-12-24T07:58:32.891Z,89.10
2022-12-24T07:59:53.562Z,89.00
2022-12-24T08:01:14.316Z,89.50
2022-12-24T08:02:35.070Z,89.70
2022-12-24T08:03:57.109Z,89.70
2022-12-24T08:05:17.690Z,89.80
2022-12-24T08:06:38.312Z,89.90
2022-12-24T08:07:59.059Z,89.90
2022-12-24T08:09:19.592Z,89.90
2022-12-24T08:10:40.432Z,89.90
2022-12-24T08:12:01.069Z,89.90
2022-12-24T08:13:21.805Z,89.80
2022-12-24T08:14:42.009Z,89.90
2022-12-24T08:16:02.564Z,89.90
2022-12-24T08:17:28.453Z,89.90
2022-12-24T08:18:52.283Z,89.90
2022-12-24T08:20:14.363Z,89.90
2022-12-24T08:21:35.010Z,89.90
2022-12-24T08:22:55.743Z,89.90
2022-12-24T08:24:16.519Z,89.90
2022-12-24T08:25:37.248Z,89.90
2022-12-24T08:26:57.985Z,89.90
2022-12-24T08:28:19.890Z,89.90
2022-12-24T08:29:40.437Z,89.90
2022-12-24T08:31:01.348Z,89.90
2022-12-24T08:32:21.946Z,89.90
2022-12-24T08:33:42.231Z,89.90
2022-12-24T08:35:02.902Z,89.90
2022-12-24T08:36:24.728Z,89.90
2022-12-24T08:37:44.873Z,89.90
2022-12-24T08:39:05.511Z,89.90
2022-12-24T08:40:26.346Z,89.90
2022-12-24T08:41:46.894Z,89.90
2022-12-24T08:43:07.107Z,89.90
2022-12-24T08:44:27.632Z,89.90
2022-12-24T08:45:48.789Z,89.90
2022-12-24T08:47:09.464Z,89.90
2022-12-24T08:48:30.299Z,89.80
2022-12-24T08:49:50.525Z,89.80
2022-12-24T08:51:12.281Z,89.80
2022-12-24T08:52:33.893Z,89.90
2022-12-24T08:53:54.308Z,89.90
2022-12-24T08:55:14.973Z,89.90
2022-12-24T08:56:35.771Z,89.20
2022-12-24T08:57:56.264Z,88.90
2022-12-24T08:59:16.690Z,89.00
2022-12-24T09:00:37.983Z,89.10
2022-12-24T09:01:58.855Z,88.30
2022-12-24T09:03:26.771Z,88.30
2022-12-24T09:04:48.030Z,88.70
2022-12-24T09:06:08.741Z,88.60
2022-12-24T09:07:29.446Z,88.70
2022-12-24T09:08:51.249Z,88.50
2022-12-24T09:10:12.110Z,88.40
2022-12-24T09:11:34.635Z,88.30
2022-12-24T09:12:55.364Z,88.40
2022-12-24T09:14:15.954Z,88.40
2022-12-24T09:15:36.422Z,88.30
2022-12-24T09:16:56.863Z,88.20
2022-12-24T09:18:17.507Z,87.70
2022-12-24T09:19:38.310Z,87.80
2022-12-24T09:20:59.822Z,87.10
2022-12-24T09:22:22.340Z,87.60
2022-12-24T09:23:44.320Z,87.90
2022-12-24T09:25:07.520Z,87.50
2022-12-24T09:26:28.416Z,87.30
2022-12-24T09:27:49.112Z,87.20
2022-12-24T09:29:10.529Z,87.30
2022-12-24T09:30:31.314Z,87.60
2022-12-24T09:31:51.923Z,87.30
2022-12-24T09:33:12.885Z,87.50
2022-12-24T09:34:33.571Z,86.80
2022-12-24T09:35:54.397Z,86.50
2022-12-24T09:37:14.692Z,86.80
2022-12-24T09:38:36.502Z,86.80
2022-12-24T09:39:56.817Z,86.80
2022-12-24T09:41:30.800Z,87.20
2022-12-24T09:42:53.208Z,87.20
2022-12-24T09:44:22.649Z,87.20
2022-12-24T09:45:48.208Z,86.80
2022-12-24T09:47:12.784Z,86.80
2022-12-24T09:48:34.941Z,86.50
2022-12-24T09:49:56.472Z,87.00
2022-12-24T09:51:21.474Z,87.00
2022-12-24T09:52:44.178Z,87.00
2022-12-24T09:54:10.157Z,87.40
2022-12-24T09:55:32.668Z,86.40
2022-12-24T09:56:55.337Z,86.10
2022-12-24T09:58:20.503Z,86.30
2022-12-24T09:59:42.985Z,86.50
2022-12-24T10:01:05.538Z,86.50
2022-12-24T10:02:26.490Z,86.60
2022-12-24T10:03:47.619Z,86.10
2022-12-24T10:05:14.101Z,85.90
2022-12-24T10:06:38.842Z,86.20
2022-12-24T10:08:06.076Z,86.50
2022-12-24T10:09:32.916Z,86.30
2022-12-24T10:10:54.539Z,86.20
2022-12-24T10:12:20.704Z,85.80
2022-12-24T10:13:54.416Z,86.10
2022-12-24T10:15:20.905Z,85.80
2022-12-24T10:16:48.116Z,86.20
2022-12-24T10:18:21.208Z,85.90
2022-12-24T10:19:48.176Z,85.60
2022-12-24T10:21:13.165Z,85.60
2022-12-24T10:22:37.455Z,85.20
2022-12-24T10:24:02.490Z,85.20
2022-12-24T10:25:26.340Z,85.10
2022-12-24T10:26:50.782Z,84.80
2022-12-24T10:28:16.215Z,84.70
2022-12-24T10:29:39.248Z,84.70
2022-12-24T10:31:04.252Z,85.00
2022-12-24T10:32:26.984Z,84.80
2022-12-24T10:33:50.765Z,84.10
2022-12-24T10:35:22.839Z,84.60
2022-12-24T10:36:43.148Z,84.20
2022-12-24T10:38:03.751Z,84.20
2022-12-24T10:39:27.506Z,84.10
2022-12-24T10:40:50.026Z,84.50
2022-12-24T10:42:11.810Z,84.00
2022-12-24T10:43:33.935Z,84.70
2022-12-24T10:44:56.985Z,84.90
2022-12-24T10:46:19.095Z,84.70
2022-12-24T10:47:41.144Z,84.40
2022-12-24T10:49:03.503Z,84.60
2022-12-24T10:50:28.577Z,85.00
2022-12-24T10:51:52.629Z,84.70
2022-12-24T10:53:17.949Z,84.40
2022-12-24T10:54:38.299Z,84.10
2022-12-24T10:56:03.719Z,84.20
2022-12-24T10:57:26.248Z,84.10
2022-12-24T10:58:52.394Z,83.50
2022-12-24T11:00:20.162Z,83.90
2022-12-24T11:01:45.131Z,83.80
2022-12-24T11:03:08.633Z,83.30
2022-12-24T11:04:31.389Z,83.90
2022-12-24T11:06:06.801Z,84.10
2022-12-24T11:07:28.424Z,84.30
2022-12-24T11:08:49.192Z,83.90
2022-12-24T11:10:23.574Z,83.90
2022-12-24T11:11:44.240Z,84.00
2022-12-24T11:13:36.418Z,84.10
2022-12-24T11:14:46.292Z,84.00
2022-12-24T11:16:10.357Z,84.10
2022-12-24T11:17:30.969Z,84.30
2022-12-24T11:18:53.258Z,84.10
2022-12-24T11:20:17.627Z,84.20
2022-12-24T11:21:40.153Z,83.90
2022-12-24T11:23:01.025Z,84.20
2022-12-24T11:24:26.324Z,84.10
2022-12-24T11:25:48.511Z,84.60
2022-12-24T11:27:32.149Z,84.30
2022-12-24T11:29:14.774Z,84.20
2022-12-24T11:30:36.778Z,84.40
2022-12-24T11:32:15.750Z,84.20
2022-12-24T11:33:47.127Z,84.10
2022-12-24T11:35:09.258Z,84.00
2022-12-24T11:36:30.390Z,84.00
2022-12-24T11:38:10.029Z,83.50
2022-12-24T11:39:39.073Z,83.50
2022-12-24T11:41:07.892Z,83.50
2022-12-24T11:42:31.643Z,83.90
2022-12-24T11:44:00.368Z,83.50
2022-12-24T11:45:23.517Z,83.00
2022-12-24T11:46:45.378Z,83.30
2022-12-24T11:48:26.444Z,83.20
2022-12-24T11:49:46.896Z,83.30
2022-12-24T11:51:20.614Z,82.90
2022-12-24T11:52:42.275Z,82.90
2022-12-24T11:54:09.106Z,82.30
2022-12-24T11:55:37.571Z,83.20
2022-12-24T11:56:59.039Z,83.00
2022-12-24T11:58:23.808Z,82.70
2022-12-24T11:59:46.999Z,83.00
2022-12-24T12:01:15.997Z,82.70
2022-12-24T12:02:39.564Z,82.70
2022-12-24T12:04:02.418Z,83.00
2022-12-24T12:05:26.433Z,82.90
2022-12-24T12:06:48.430Z,82.70
2022-12-24T12:08:13.694Z,82.70
2022-12-24T12:09:37.862Z,82.70
2022-12-24T12:10:58.702Z,82.70
2022-12-24T12:12:22.489Z,82.60
2022-12-24T12:13:44.473Z,82.30
2022-12-24T12:15:11.083Z,82.40
2022-12-24T12:16:39.429Z,82.40
2022-12-24T12:18:06.413Z,82.90
2022-12-24T12:19:27.765Z,82.20
2022-12-24T12:20:50.176Z,82.30
2022-12-24T12:22:18.813Z,81.80
2022-12-24T12:23:44.110Z,81.90
2022-12-24T12:25:06.278Z,82.30
2022-12-24T12:26:28.254Z,82.10
2022-12-24T12:27:51.638Z,82.40
2022-12-24T12:29:23.648Z,82.40
2022-12-24T12:30:45.057Z,82.40
2022-12-24T12:32:08.101Z,81.90
2022-12-24T12:33:33.699Z,82.00
2022-12-24T12:35:01.286Z,82.30
2022-12-24T12:36:25.781Z,82.10
2022-12-24T12:37:50.685Z,81.90
2022-12-24T12:39:11.798Z,81.80
2022-12-24T12:41:05.542Z,81.60
2022-12-24T12:42:30.991Z,81.50
2022-12-24T12:44:19.403Z,81.70
2022-12-24T12:45:43.517Z,81.00
2022-12-24T12:47:16.017Z,80.50
2022-12-24T12:48:58.563Z,80.30
2022-12-24T12:50:25.788Z,80.00
2022-12-24T12:51:49.889Z,79.70
2022-12-24T12:53:23.166Z,79.90
2022-12-24T12:55:01.462Z,79.90
2022-12-24T12:56:29.689Z,80.10
2022-12-24T12:57:51.950Z,80.40
2022-12-24T12:59:18.197Z,80.70
2022-12-24T13:00:39.758Z,80.60
2022-12-24T13:02:20.090Z,80.40
2022-12-24T13:04:09.057Z,79.70
2022-12-24T13:06:05.709Z,80.10
2022-12-24T13:07:51.620Z,80.30
2022-12-24T13:09:35.337Z,80.50
2022-12-24T13:11:11.703Z,79.20
2022-12-24T13:12:53.010Z,79.70
2022-12-24T13:14:37.106Z,79.60
2022-12-24T13:16:09.393Z,79.00
2022-12-24T13:17:57.412Z,79.20
2022-12-24T13:19:32.856Z,78.50
2022-12-24T13:20:56.731Z,78.70
2022-12-24T13:22:17.758Z,78.90
2022-12-24T13:23:38.144Z,79.10
2022-12-24T13:24:58.990Z,78.20
2022-12-24T13:26:19.774Z,77.70
2022-12-24T13:27:40.441Z,78.90
2022-12-24T13:29:31.958Z,78.90
2022-12-24T13:30:53.879Z,77.90
2022-12-24T13:32:39.890Z,77.50
2022-12-24T13:34:02.519Z,77.60
2022-12-24T13:35:38.973Z,77.60
2022-12-24T13:37:05.215Z,77.50
2022-12-24T13:38:40.592Z,77.30
2022-12-24T13:40:03.711Z,76.80
2022-12-24T13:41:57.252Z,77.40
2022-12-24T13:43:17.874Z,77.80
2022-12-24T13:44:38.533Z,77.40
2022-12-24T13:45:59.061Z,77.40
2022-12-24T13:47:25.287Z,77.60
2022-12-24T13:48:50.368Z,77.10
2022-12-24T13:50:24.652Z,76.10
2022-12-24T13:51:46.717Z,76.90
2022-12-24T13:53:21.013Z,76.80
2022-12-24T13:54:43.729Z,77.00
2022-12-24T13:56:08.825Z,77.30
2022-12-24T13:57:35.989Z,76.70
2022-12-24T13:59:10.593Z,76.00
2022-12-24T14:00:38.998Z,76.40
2022-12-24T14:02:00.269Z,75.90
2022-12-24T14:03:32.711Z,76.50
2022-12-24T14:04:54.881Z,76.40
2022-12-24T14:06:22.874Z,76.50
2022-12-24T14:07:47.462Z,76.50
2022-12-24T14:09:10.272Z,77.00
2022-12-24T14:10:32.297Z,77.10
2022-12-24T14:12:16.570Z,77.00
2022-12-24T14:14:15.349Z,78.20
2022-12-24T14:16:02.829Z,77.40
2022-12-24T14:17:25.171Z,77.60
2022-12-24T14:18:50.192Z,77.20
2022-12-24T14:20:10.857Z,76.80
2022-12-24T14:21:34.388Z,76.90
2022-12-24T14:22:56.555Z,77.10
2022-12-24T14:24:20.821Z,77.00
2022-12-24T14:25:42.002Z,77.20
2022-12-24T14:27:08.852Z,78.00
2022-12-24T14:28:35.607Z,78.60
2022-12-24T14:30:01.903Z,78.90
2022-12-24T14:31:22.621Z,79.50
2022-12-24T14:32:53.372Z,79.30
2022-12-24T14:34:19.390Z,79.10
2022-12-24T14:35:40.400Z,79.70
2022-12-24T14:37:03.885Z,79.50
2022-12-24T14:38:32.725Z,79.30
2022-12-24T14:39:53.018Z,78.90
2022-12-24T14:41:24.074Z,79.20
2022-12-24T14:42:53.221Z,79.30
2022-12-24T14:44:21.258Z,79.50
2022-12-24T14:45:46.132Z,79.20
2022-12-24T14:47:16.136Z,79.10
2022-12-24T14:48:43.116Z,78.60
2022-12-24T14:50:29.846Z,79.20
2022-12-24T14:51:57.588Z,79.20
2022-12-24T14:53:26.499Z,79.30
2022-12-24T14:54:57.591Z,79.60
2022-12-24T14:56:20.010Z,79.60
2022-12-24T14:57:40.390Z,79.50
2022-12-24T14:59:15.025Z,79.50
2022-12-24T15:00:50.211Z,79.90
2022-12-24T15:02:36.212Z,80.00
2022-12-24T15:04:14.319Z,80.10
2022-12-24T15:05:35.085Z,79.70
2022-12-24T15:06:57.047Z,80.00
2022-12-24T15:08:29.756Z,80.50
2022-12-24T15:09:52.907Z,81.20
2022-12-24T15:11:17.881Z,80.80
2022-12-24T15:12:46.169Z,80.90
2022-12-24T15:14:06.870Z,81.00
2022-12-24T15:15:27.640Z,81.00
2022-12-24T15:16:58.064Z,81.20
2022-12-24T15:18:20.427Z,81.80
2022-12-24T15:19:43.064Z,81.70
2022-12-24T15:21:05.750Z,82.20
2022-12-24T15:22:29.255Z,82.20
2022-12-24T15:23:52.777Z,82.00
2022-12-24T15:25:20.982Z,82.50
2022-12-24T15:26:55.420Z,82.10
2022-12-24T15:28:23.994Z,82.50
2022-12-24T15:29:46.250Z,82.30
2022-12-24T15:31:15.390Z,82.20
2022-12-24T15:32:35.671Z,82.20
2022-12-24T15:33:57.500Z,82.50
2022-12-24T15:35:35.798Z,83.40
2022-12-24T15:37:14.910Z,83.90
2022-12-24T15:38:42.836Z,83.40
2022-12-24T15:40:08.043Z,83.90
2022-12-24T15:41:39.857Z,83.90
2022-12-24T15:43:01.802Z,83.70
2022-12-24T15:44:22.554Z,83.50
2022-12-24T15:45:51.098Z,83.90
2022-12-24T15:47:16.346Z,83.70
2022-12-24T15:48:45.484Z,83.60
2022-12-24T15:50:15.245Z,83.30
2022-12-24T15:51:40.523Z,83.40
2022-12-24T15:53:21.484Z,83.60
2022-12-24T15:54:44.866Z,83.70
2022-12-24T15:56:09.469Z,83.90
2022-12-24T15:57:37.633Z,83.90
2022-12-24T15:59:30.380Z,84.10
2022-12-24T16:01:01.521Z,84.10
2022-12-24T16:02:37.261Z,83.80
2022-12-24T16:03:58.886Z,83.50
2022-12-24T16:05:31.878Z,83.50
2022-12-24T16:06:54.717Z,83.40
2022-12-24T16:08:27.529Z,83.30
2022-12-24T16:10:02.442Z,83.20
2022-12-24T16:11:27.051Z,83.20
2022-12-24T16:12:47.346Z,83.30
2022-12-24T16:14:12.492Z,83.20
2022-12-24T16:15:34.691Z,83.80
2022-12-24T16:16:55.624Z,84.00
2022-12-24T16:18:24.191Z,84.20
2022-12-24T16:19:53.309Z,84.10
2022-12-24T16:21:19.800Z,84.30
2022-12-24T16:22:40.493Z,84.50
2022-12-24T16:24:07.288Z,84.50
2022-12-24T16:25:30.058Z,84.60
2022-12-24T16:26:51.480Z,85.00
2022-12-24T16:28:17.450Z,85.00
2022-12-24T16:29:42.585Z,85.40
2022-12-24T16:31:04.625Z,85.50
2022-12-24T16:32:30.946Z,85.60
2022-12-24T16:33:52.538Z,85.30
2022-12-24T16:35:21.883Z,85.60
2022-12-24T16:36:43.114Z,85.40
2022-12-24T16:38:06.685Z,85.10
2022-12-24T16:39:30.701Z,85.10
2022-12-24T16:40:51.368Z,85.10
2022-12-24T16:42:14.207Z,85.30
2022-12-24T16:43:34.824Z,85.70
2022-12-24T16:44:56.948Z,86.00
2022-12-24T16:46:22.282Z,85.90
2022-12-24T16:47:46.024Z,86.00
2022-12-24T16:49:06.985Z,86.80
2022-12-24T16:50:27.868Z,86.80
2022-12-24T16:51:48.613Z,86.70
2022-12-24T16:53:17.203Z,87.10
2022-12-24T16:54:38.453Z,86.90
2022-12-24T16:55:59.103Z,87.30
2022-12-24T16:57:29.720Z,87.30
2022-12-24T16:58:59.458Z,87.20
2022-12-24T17:00:26.334Z,86.90
2022-12-24T17:01:49.011Z,86.90
2022-12-24T17:03:13.286Z,86.70
2022-12-24T17:04:34.634Z,86.60
2022-12-24T17:05:55.307Z,86.60
2022-12-24T17:07:20.269Z,86.70
2022-12-24T17:08:43.869Z,86.60
2022-12-24T17:10:10.121Z,86.40
2022-12-24T17:11:30.838Z,86.70
2022-12-24T17:12:51.515Z,86.70
2022-12-24T17:14:19.773Z,86.40
2022-12-24T17:15:52.541Z,86.20
2022-12-24T17:17:23.043Z,86.20
2022-12-24T17:18:43.462Z,86.50
2022-12-24T17:20:05.020Z,86.80
2022-12-24T17:21:28.874Z,86.90
2022-12-24T17:22:55.139Z,87.30
2022-12-24T17:24:31.431Z,87.20
2022-12-24T17:25:51.746Z,86.90
2022-12-24T17:27:12.682Z,86.90
2022-12-24T17:28:39.202Z,86.50
2022-12-24T17:30:02.287Z,86.60
2022-12-24T17:31:23.531Z,86.60
2022-12-24T17:32:48.847Z,86.60
2022-12-24T17:34:09.268Z,86.60
2022-12-24T17:35:30.027Z,86.40
2022-12-24T17:36:50.484Z,86.20
2022-12-24T17:38:10.914Z,86.30
2022-12-24T17:39:31.624Z,86.60
2022-12-24T17:40:52.348Z,87.00
2022-12-24T17:42:12.764Z,87.30
2022-12-24T17:43:33.788Z,87.40
2022-12-24T17:44:54.031Z,87.10
2022-12-24T17:46:16.257Z,87.40
2022-12-24T17:47:36.978Z,87.50
2022-12-24T17:48:58.956Z,87.60
2022-12-24T17:50:19.659Z,88.20
2022-12-24T17:51:45.250Z,87.90
2022-12-24T17:53:06.585Z,87.80
2022-12-24T17:54:27.257Z,88.10
2022-12-24T17:55:48.066Z,87.80
2022-12-24T17:57:08.913Z,87.50
2022-12-24T17:58:29.688Z,87.40
2022-12-24T17:59:50.274Z,87.50
2022-12-24T18:01:12.878Z,87.50